15.9. Szinoptikus távirat elemzése

15.9.1. Elméleti háttér

A szinoptikus talajtérkép az időjárási helyzet bemutatásának hagyományos eszköze. A meteorológiai állomások mérési programja, az időjárási táviratok elkészítése a világon mindenütt ugyanolyan módon történik. Ismerkedjünk meg a szinoptikus térkép rajzolásával.

Az időjárási távirat ötös számcsoportokban tartalmazza meteorológiai mérések és megfigyelések eredményeit. A ma is használatos FM 12-VII. SYNOP kód 1982. január 1-től szolgálja a meteorológusokat. A kötött formátumú ötös számcsoportokból álló kód segíti a számítógépes adatfeldolgozást és a hibaszűrést (vannak kötelezően megadásra kerülő csoportok, s az egyes kódcsoportok elején jelzőszámok is szerepelnek, lásd pl. a hőmérséklet csoportot, aminek az első kódja az 1). Nézzük az időjárási távirat fő részét, s fejtsük meg az egyes kódcsoportok jelentését! A távirat fejlécének és a globális cserére kerülő 1. szakaszának az alakja:

MiMiMjMj YYGGiw IIiii iRixhVV Nddff 1snTTT 2snTdTdTd 3P0P0P0P0 4pppp 5appp 6RRRtR 7wwW1W2 8NhCLCMCH 9hh//

A regionális cserére kerülő táviratrészt 333, míg a hazai felhasználásra szánt adatokat az 555 számmal kezdődő szakasz tartalmazza – ezekkel itt nem foglalkozunk

A meteorológiai gyakorlatban a kód elemeit tartalmazó rajzolási segédletet használnak a térképek rajzolásához. A szinoptikus kód részletes leírása az ELTE Meteorológiai Tanszék oldalán a https://nimbus.elte.hu/fcrace/doc/synop_seged.pdf helyen található (összeállította Merics Attila). Szintén részletes leírást találunk Weidinger és Tasnádi (2007) Klasszikus dinamikus meteorológiai példatárában is.

A szinoptikus állomás körül kék és piros színnel rajzoljuk be a meteorológiai mérések és észlelések adatait az ábrán megadottak szerint. (Piros színnel kerül megrajzolásra a hőmérséklet (TTT) – állomásjelző karikától balra fent, a harmatpont (TdTdTd) – balra lent, az elmúlt idő két szimbóluma (W1W2) – jobbra lent, a nyomástendencia (ppp) – az állomási légnyomás változása az elmúlt 3 órában tized hPa-ban és a változás irányának a jele (a) abban az esetben, ha összességében nyomás csökkenést detektáltunk – az állomásjelző karikától jobbra, a magasszintű felhőzet jele (CH) – a középszintű felhőzet (CM) jele felett.)

Nézzük a távirat egyes csoportjait! A következőkben ezek általános jelentését, az alkalmazott számozások logikáját ismertetjük röviden.

MiMiMjMj:

a távirat típusa, felszíni szinoptikus állomások esetén: aaxx.

 

YYGGiw:

a mérés időpontja. YY a hónap napja, GG pedig az észlelés időpontja UTC-ben (világidőben). iw a szélmérésre vonatkozó kód. Nyugat-Európában és a volt Jugoszlávia országaiban a szélsebességet csomóban mérik (2 csomó = 1 m s–1). Közép- és Kelet-Európában, így hazánkban is m s–1 egységben továbbítják az adatokat.

A meteorológiai észlelések folyamatosak, óráról órára történnek, így az évet és a hónapot nem adják meg. Az adatok archiválásánál természetesen erről sem feledkezhetünk meg. A meteorológiában vannak kitüntetett észlelési időpontok, amelyekre a méréseket koncentrálják. Ezek az ún. főterminusok (00, 06, 12, 18 UTC) és a mellékterminusok (03, 09,15, 21 UTC).

IIiii:

a meteorológiai állomás öt számjegyű azonosítója. Az első két számjegy (II) adja meg a körzetszámot. Ez Magyarországra és Lengyelországra a 12. A következő három számjegy jelöli az állomásszámot, ami Magyarországon 7-tel, 8-cal vagy 9-cel kezdődik.

Az állomások számozása nyugatról keletre, illetve északról dél felé haladva is növekszik. Ezt a logikát jól mutatja Sopron (12805), Budapest-Pestszentlőrinc (12843) Debrecen (12882) és Békéscsaba (12992) állomási száma. A magyarországi szinoptikus alaptérképet, ahol a meteorológiai állomások helyét is bejelöltük a IX.2. ábra mutatja. A hegyi állomásokat (a térképen Kékestető, 12851) az állomást jelző karikába rajzolt kereszttel jelöljük. A hegyi állomások adatait piros színnel visszük fel a térképre és kihagyjuk az analízisből.

iRixhVV:

felhőalap, látástávolság csoport

 

iR:

a csapadékmérésre vonatkozó kód (lesz-e adat, s ha igen, akkor a távirat melyik részében)

 

ix :

az állomás típusáról (automata vagy észlelővel ellátott) és a jelen idő kód (7-es csoport) megadásáról szóló információt tartalmazó jelzőszám

 

VV:

a látótávolság; 5 km alatti vízszintes látótávolság esetén 100 m-es felbontásban, majd felette 30 km-ig km-es osztásközökkel, végül 30 km felett már 5 km-es lépésekben. Mindig a minimális látótávolságot adjuk meg. Ez pl. egy közeledő csapadékzóna vagy egy advektív ködhelyzet kialakulásakor lehet fontos.

Megjegyezzük, hogy a látótávolság csökkenése a légköri aeroszol részecskék számának és méretének növekedésével van összefüggésben. A légkör gázösszetevői, így a vízgőz önmagában nem befolyásolják a látótávolságot. Természetesen a relatív nedvesség növekedésével az aeroszol részecskék is növekedésnek indulnak (higroszkóposság), s ez a hatás csökkenti a látótávolságot.

Legyen a kódcsoport 21456, ekkor a 2-es kód azt jelenti, hogy a csapadékadat a távirat regionális cserére kerülő részében lesz (333-mal kezdődik). i= 1 azt mutatja, hogy az állomás észlelővel ellátott és megadják a táviratban a 7-es jelen idő csoportot. A felhőalap (4) 300 m és 600 m közötti, míg a látótávolság (45) 4,5 km.

Nddff:

felhőzet, szélsebesség és szélirány csoport

 

N:

a felhőzet mennyisége oktában (nyolcadokban). Nulla okta a felhőzet, ha egyetlen kis felhőpamacs sincs az égen, míg a 8-as kódot csak akkor adjuk meg, ha az ég teljesen borult, sehol nem látszik az ég kékje. Ha nem tudjuk megállapítani a felhőzet mennyiségét, pl. köd van vagy hófúvás, esetleg por- vagy homokvihar) akkor a 9-es kódot adjuk meg. Ennek a jele az állomásjelző karikába írt x.

 

dd:

a szélirány tíz fokos bontásban, vagyis 5 fokos pontossággal. A szélirány a meteorológiai méréseknél 10 m-es magasságban mért 10 perces átlagos szélirány. Szélcsend esetén a szélirány kódja 0. Abban az esetben, ha nem tudjuk meghatározni a jellegzetes szélirányt, pl. egy front haladt át a mérési időszakban az állomáson, akkor a 99-es kódot használjuk (változó szélirány). A meteorológiában – ahogy már korábban is említettük – a szélirány azt mutatja meg, hogy honnan fúj a szél.

 

ff:

a szélsebesség m s–1 egységben. A szélsebességet a szélzászlóval adjuk meg. Egy kis zászló 2,5 m s–1-ot , egy nagy zászló 5 m s–1-ot jelent. 25 m s–1-os szelet egy besatírozott vékony háromszöggel jelöljük a szélirányt jelző vonalon.

Legyen a kód 81403, ekkor a felhőzet (8) nyolc okta, s 140 fokról (14) 3 m s–1 sebességű szél (03) fúj.

1snTTT:

1-es csoport: hőmérséklet. Az 1-es kód a hőmérséklet megadására szolgál. Ennek mindig szerepelnie kell a táviratban. Az sn az előjel kód. Ha a hőmérséklet nem negatív, akkor s= 0, míg negatív hőmérsékletek esetén s= 1. A TTT a hőmérséklet értékét adja meg tized fokokban.

A 11222 kódolás például azt jelenti, hogy a hőmérséklet –22,2 °C, ami nagyon ritkán, de nálunk is előfordulhat. (A hőmérőházban, 2 m magason mért abszolút minimum hőmérséklet Magyarországon –35 oC.)

2snTdTdTd:

2-es csoport: harmatpont. A 2-es kód a harmatpont megadására szolgál. Ennek is mindig szerepelnie kell a táviratban. Hasonlóan az 1-es csoporthoz az sn az előjel kód. Ha a harmatpont nem negatív, akkor s= 0, míg negatív harmatpontok esetén s= 1. A TdTdTd a harmatpont értékét adja meg tized fokokban.

Példa: 20123 azt jelenti, hogy a harmatpont +12,3 °C.

3P0P0P0P0:

3-as csoport, felszíni nyomás. Az állomáson mért légnyomás értéke tized hPa-ban az ezresek elhagyásával. A csoportot nem kötelező megadni.

Ha a kódcsoport például 30099, akkor ez azt jelenti, hogy az állomáson a légnyomás értéke 1009,9 hPa.

4pppp:

4-es csoport, a tengerszinti nyomás, illetve hegyi állomás esetén (4a3hhh) az állomáshoz legközelebbi főizobár szint magasságának a megadására szolgál. Ezt a csoportot mindig meg kell adni. Hasonlóan a 3-as csoporthoz itt is tized hPa-ban adjuk meg az értéket az ezresek elhagyásával.

Ha a kódcsoport például 40227, akkor ez azt jelenti, hogy a tengerszintre redukált légnyomás 1022,7 hPa. Ne feledjük, hogy a légnyomás hozzávetőlegesen 8,5 m-enként változik 1 hPa-t.

Abban az esetben, ha hegyi állomásról van szó (nálunk pl. Kékestető – 12851), akkor a kód alakja a következő lesz: 4a3hhh. Ezt a csoportot az 500 méter tengerszint feletti magasság feletti állomások veszik fel a táviratba. a3: annak a főizobár szintnek a jelzőszáma, amelynek a tengerszint feletti magasságát jelentik. Ha a3 értéke 1, akkor ez az 1000 hPa, ha 2, akkor a 925 hPa, ha 5, akkor az 500 hPa, ha 7, akkor a 700 hPa, s ha 8, akkor a 850 hPa. A tengerszint feletti magasságot három számjeggyel adjuk meg, ami az ezresek elhagyásával m-es pontosságot jelent. Precízebben fogalmazva hhh: az a3 kód segítségével megadott főizobár szint geopotenciáljának értéke gpm-ben (az ezresek elhagyásával), ahol a normáló tényező 9,8. h = 1/9,8 * Φ, ahol Φ a geopotenciál (az egységnyi légrész potenciális energiája, dimenziója m2 s–2), h a magasság gpm-ben.

Példaként legyen a kódcsoport 42743, ami azt jelenti, hogy a 925 hPa-os szint (a legközelebbi főizobár szint) magassága 743 gpm.

5appp:

5-os csoport, nyomási tendencia. A nyomástendencia értéke az állomási légnyomás változását adja meg az elmúlt 3 órában. A csoport második eleme (a) megadja a nyomástendencia menetét (lásd IX.1. ábrát), míg ppp a tized hPa-ban mért értékét.

Legyen az 5-ös csoport alakja 58008, ami azt jelenti, hogy a nyomás az elmúlt 3 órában 0,8 hPa-t csökkent, oly módon, hogy az időszak elején még növekedett, majd csökkent.

6RRRtR:

a 6-os csoport a csapadék, amit nem rajzolunk fel a szinoptikus térképre.

 

7wwW1W2:

7-es csoport, a jelen idő és az elmúlt idő jellemzésére szolgál.

 

ww:

a jelen idő kódja. Tízes csoportokba rendezve adja meg az elmúlt órára jellemző legmarkánsabb időjárási jelenséget. 0–49 között azok az esetek szerepelnek, amikor az észlelés időpontjában nincs csapadék az állomáson, míg az 50–99 közötti kódok jelzik, hogy az észlelés időpontjában volt csapadékhullás.

Nézzük a fő csoportokat!

0–19 között közötti kód esetén az elmúlt egy órában nem volt csapadéktevékenység. Az első tízes csoportban (0–9) szerepel a felhőzet mennyiségének megváltozása, vagy pl. a száraz légköri homály (a látástávolság 5 km alá csökken (1–5 km közötti), de ennek oka az aeroszol részecskék mennyiségének a növekedése, a relatív nedvesség ekkor 80% alatti). A 11–20 közötti kódok esetén a nedvességgel kapcsolatos jelenségekkel találkozunk. Ilyen a párásság, ami 1–5 km közötti látástávolságot jelent, de ennek az oka a növekvő (80% feletti) relatív nedvesség (az aeroszol részecskék növekedése – higroszkóposság), nem pedig a számkoncentráció növekedése, mint a száraz légköri homály esetén. Ebben a csoportban adjuk meg a sekély ködöt is. A 31–39 közötti kódok jelzik, hogy csapadék, köd vagy zivatar volt az elmúlt órában, de jelenleg már megszűnt. A 41–49 kód tartalmazza a ködös helyzeteket (mikor a látástávolság 1 km alatti), továbbá a por-, homok- vagy a hóvihart. Az 50–59 közötti számok jelzik a szitálást, illetve az ónos szitálást (a csapadékelemek mérete 0,5 mm-nél kisebb). A következő tízes csoportba (60–69) tartozik az eső (réteges felhőzetből hull). Itt adjuk meg az ónos esőt is. Minél nagyobb a kód értéke, annál erősebb a csapadék, ahogy ez a többi csoportra is igaz. A 61-es kód jelöli például a gyenge esőt, ami szakaszosan hull, míg a 69-es kód az erős havas esőt jelzi. A következő csoport (71–79) a havazást jelöli, míg a 81–99-es kódcsoport jelzi a záporszerű csapadékot (gomolyos felhőzetből hull), amit zivatartevékenység is kísérhet (91-es kódtól). A legveszélyesebb időjárási helyzet a 99-es, ami az észleléskor zivatart jelez erős jégesővel vagy jégdarával.

W1W2:

az elmúlt 3 órára (mellékterminusban) vagy az elmúlt 6 órára (főterminus) jellemző időjárási kép. Két jellemző értéket adhatunk meg, amelyek azonosak is lehetnek. Az egyes számkódok a jelen idő tízes csoportjaira emlékeztetnek. 0-2-ig a derült, a felhős és a borult eget jelezzük. Ezt követi a köd (3), majd a por-, homok- vagy hóvihar (4), s utána a csapadéktevékenység, vagyis a szitálás (5), az eső (6), a havazás (7), a zápor (8) és a zivatartevékenység (9).

Legyen például a kódcsoport alakja: 76382. Ekkor a jelen idő kódja 63, azaz folyamatosan mérsékelt erősségű eső hull. Az elmúlt 3 vagy 6 órában (mellék vagy főterminusban) az ég borult volt és záporszerű csapadék is hullott.

8NhCLCMCH:

a 8-as csoport a felhőzet megadására szolgál.

 

Nh:

a legalacsonyabb szintű felhőzet mennyisége oktákban.

 

CL:

az alacsony szintű felhőzet (stratus, stratocumulus, cumulus, cumulonimbus) fajtáját adja meg.

 

CM:

a középszintű felhőzet (altostratus és az altocumulus, illetve az alacsony felhőalappal rendelkező áthatoló felhőzet, a nimbostratus típusát adja meg.

 

CH:

a magas szintű felhőzet (cirrus, cirrostratus, cirrocumulus) formáját közli. Ha valahol nincs adat, akkor azt perjellel jelezzük (/) – ez a teljes táviratra is igaz.

Legyen a kódcsoport alakja: 8572/. E szerint az alacsony szintű felhőzet mennyisége 5 okta, az alacsony szintű felhőzet kódja 7, vagyis rosszidő-típusú stratus fractus vagy cumulus fractus (pannus), illetve mindkettő. Rendszerint altostratus vagy nimbostratus réteg alatt forul elő. A középmagas felhőzet kódja 2: altostratus opacus vagy nimbostratus. A magasszintű felhőzet típusa nem határozható meg, pl. nem látszik (/).

9hh//:

9-es csoport, a felhőalap részletesebb leírására szolgál, a táviratban nem használjuk.

15.9.2. Feladatok

Az előző fejezetben említett, 1992. szeptember 1-jén készült magyarországi órás SYNOP táviratok adatait megadjuk az alábbiakban, órás bontásban. Ezek alapján készítsük el az időjárási térképet egy kiválasztott órára, Magyarországra.

A távirat megfejtése után az egyes állomások körül a rajzolási segédletnek megfelelően felrajzoljuk a meteorológiai adatokat. A magyarországi szinoptikus alaptérképet a 15.6. ábra adja meg. Ne feledjük felírni a nevet és az észlelés idejét (év, hó, nap, óra UTC-ben)!

Az adatbázisban szereplő meteorológiai állomások adatait a 15.8. táblázat tartalmazza.

15.8. táblázat: Az Országos Meteorológiai Szolgálat meteorológiai állomásainak adatai ( a meteorológiai állomás öt számjegyű nemzetközi azonosító kódja, név, földrajzi szélesség és hosszúság, tengerszint feletti magasság)

Kód

Állomás

Földrajzi

szélesség

Földrajzi

hosszúság

Tengerszint feletti magasság

[m]

12772

Miskolc

48°08’

20°48’

119

12805

Sopron

47°41’

16°36’

238

12812

Szombathely

47°16’

16°38’

221

12822

Győr

47°42’

17°41’

116

12825

Pápa

47°21’

17°28’

141

12830

Veszprém

47°05’

17°55’

220

12838

Budaörs

47°27’

18°58’

132

12843

Budapest-Lőrinc

47°26’

19°11’

139

12851

Kékestető

47°52’

20°01’

1015

12860

Szolnok

47°10’

20°14’

85

12882

Debrecen

47°29’

21°38’

112

12892

Nyíregyháza

48°01’

21°44’

106

12910

Szentgothárd-Farkasfa

46°55’

16°18’

313

12915

Zalaegerszeg

46°52’

16°48’

179

12920

Keszthely

46°45’

17°14’

116

12925

Nagykanizsa

46°27’

16°59’

141

12930

Kaposvár

46°23’

17°50’

18o

12935

Siófok

46°55’

18°02’

108

12942

Pécs

46°00’

18°14’

203

12950

Paks

46°37’

18°52’

98

12960

Baja

46°11’

19°01’

113

12970

Kecskemét

46°54’

19°45’

116

12982

Szeged

46°15’

20°06’

83

12992

Békéscsaba

46°42’

21°08’

86

A hazai szinoptikus főállomások megfigyelései, óránként (NIL jelölés esetén az adott állomáson nincsenek adatok):

 

Meteorológiai munkatérkép

15.6. ábra: Magyarországi szinoptikus munkatérkép.

Elsőként az állomásjelző karikába berajzoljuk a felhőzetet, majd a szélzászló következik. Ezután – figyelve az egyes értékek, illetve a jelek színére – folyamatosan felrajzoljuk a többi adatot. Hegyvidéki állomás (Kékestető – 12851) összes adatát, ahogy már említettük – piros színnel rajzoljuk fel, s nem vesszük figyelembe a térkép analízisénél.

15.9.1. Feladat: Időjárási távirat 1992.09.01. 00 UTC-re

SNBP HABP 010000

AAXX 01001

12772 32965 02302 10208 20115 39791 40058 53001=

12805 32981 02312 10213 20154 39733 40008 53011

555 55212 22174 23203=

12812 32981 12310 10216 20130 39763 40016 57001 80002

555 55171 22172 23184=

12822 32960 02307 10228 20145 40013 57006 555 55181 23164=

12825 32960 01907 10226 20119 40017 58003 555 /7389 55114 10051=

12838 NIL=

12843 32975 01804 10208 20114 40049 57003 555 55083=

12851 32982 02310 10163 20109 38928 42713 57011 555 55154=

12860 32965 01302 10208 20097 40066 53004 555 /7470 10054=

12882 32970 02003 10193 20150 40070 53003=

12892 32963 01304 10207 20140 40069 52003=

12910 32986 02005 10203 20126 39675 40034 51004 555 55094 22172=

12915 NIL=

12920 32975 22003 10209 20124 40044 54000 80002=

12925 32980 12004 10206 20114 40050 50000 80002 555 55092=

12935 32986 02007 10224 20115 40044 54000 555 55124=

12942 32975 00000 10194 20121 39831 40067 53004=

12950 32970 01802 10188 20131 40064 54000=

12960 32975 02301 10203 20137 40065 52003=

12970 32960 02201 10199 20140 40066 51003 555 /7448 10069=

12982 32975 12902 10170 20102 40075 51004 81080=

12992 32975 01803 10195 20146 40073 52001=

––––––––––––––––––––––––––

SNBP HABP 010000 RTD

AAXX 01001

12830 32970 02008 10204 20108 39711 40040 58004

555 /7300 55124 10054=

12840 32970 01804 10223 20118 40044 57003 555 30221 40115 55074=

12930 32968 02303 10206 20124 40059 51004=

––––––––––––––––––––––––––

15.9.2. Feladat: Időjárási távirat 1992.09.01. 01 UTC-re

SNLP HALP 010100

AAXX 01011

12860 42965 02103 10202 20097 40057 58002 555 /7464 10051=

12932 42960 02303 10204 20121 40056 58004 555 /7411 10059=

12970 42960 02201 10195 20146 40063 58001 555 /7446 10073=

12825 42960 01805 10220 20120 40021 55000 555 /7391 55074 10053=

12830 42970 02310 10196 20106 40033 58014 555 /7295 55164 10056=

––––––––––––––––––––––––––

15.9.3. Feladat: Időjárási távirat 1992.09.01. 02 UTC-re

SNBP HABP 010200

AAXX 01021

12772 42970 02303 10199 20121 40050 58009 555 55074=

12805 42981 13602 10187 20142 40030 52020 80002=

12812 42981 22501 10200 20135 40029 53011 81042 555 55081 01153=

12822 42960 02702 10210 20147 40035 53019 555 55111=

12825 42960 02004 10216 20117 40024 53003 555 /7394 10053=

12838 NIL=

12843 42975 01804 10198 20156 40046 58005 555 55083=

12851 42982 02309 10147 20105 42707 57013 555 01171 55154=

12860 42965 02003 10206 20104 40052 58009 555 /7461 10052=

12882 42965 01801 10171 20142 40067 58003=

12892 42965 01404 10192 20132 40065 57005=

12910 42984 02005 10196 20123 40033 58001 555 55111=

12915 NIL=

12920 42975 01401 10189 20109 40046 54000=

12925 42980 02003 10192 20111 40051 55004 555 55081=

12935 42986 02006 10210 20113 40040 58004 555 55133=

12942 42975 01601 10186 20127 40060 58007=

12950 42970 01802 10164 20131 40063 57004=

12960 42960 01801 10152 20130 40064 58003=

12970 42960 02201 10194 20145 40059 58007 555 /7443 10073=

12982 42970 01802 10167 20101 40071 57004=

12992 42975 01703 10180 20143 40069 58005=

––––––––––––––––––––––––––

SNBP HABP 010200 RTD

AAXX 01021

12830 42970 02306 10198 20098 40040 55006 555 /7300 55104 10052=

12840 42970 02005 10218 20115 40042 57003 555 30216 40117 55114=

12930 42968 02304 10203 20120 40053 58006=

––––––––––––––––––––––––––

15.9.4. Feladat: Időjárási távirat 1992.09.01. 03 UTC-re

SNBP HABP 010300

AAXX 01031

12772 42970 02304 10198 20118 39779 40047 56012 555 55091=

12805 42980 83403 10186 20141 39762 40038 53028 8807/=

12812 42981 50501 10184 20139 39780 40038 53017 82042=

12822 42960 43403 10196 20138 40044 52030 83042=

12825 42960 02002 10190 20098 40033 53013 555 /7399 10055=

12838 NIL=

12843 42972 02003 10198 20116 40048 55001 555 55073=

12851 42983 02309 10146 20113 38919 42706 57009 555 55154=

12860 42960 01903 10192 20103 40049 57015 555 /7459 10056=

12882 42960 01801 10169 20143 40066 57005=

12892 42968 01404 10192 20132 40062 57003=

12910 42984 11905 10193 20122 39673 40033 58003 81040 555 55103=

12915 NIL=

12920 42975 01402 10190 20112 40046 54000=

12925 42980 01802 10182 20114 40047 58004=

12935 42986 02008 10220 20127 40039 56007 333 92523 555 55143=

12942 42975 01803 10181 20130 39824 40060 56007=

12950 42965 02001 10148 20124 40063 56004=

12960 42960 01602 10164 20149 40061 57006=

12970 42960 02201 10192 20144 40057 57008 555 /7442 10074=

12982 42970 01802 10170 20098 40067 57008=

12992 42975 01903 10187 20141 40070 55004=

––––––––––––––––––––––––––

SNBP HABP 010300 RTD

AAXX 01031

12830 42970 02505 10192 20097 39715 40045 53004

555 /7303 55094 10054=

12840 42970 02005 10216 20113 40044 55000 555 30214 40112 55114=

12930 42968 02002 10194 20119 40052 56008=

––––––––––––––––––––––––––

15.9.5. Feladat: Időjárási távirat 1992.09.01. 04 UTC-re

SNBP HABP 010400

AAXX 01041

12772 42960 12003 10192 20115 40048 56007 81040 555 /7335=

12805 42570 83205 10186 20130 40040 51011 889// 333 88926

555 /7324 55104=

12812 42680 60702 10190 20126 40042 52019 83242 333 83833

555 /7339=

12822 42560 73202 10192 20133 40047 51022 8357/ 333 83630 555 /7435=

12825 42560 63503 10196 20112 40039 53016 85540 333 85620

555 /7403 10058=

12838 NIL=

12843 42970 02302 10188 20106 40050 53001 555 /7416=

12851 42983 02308 10137 20105 42706 57007 555 /6689 55144=

12860 42960 02103 10183 20100 40052 55006 555 /7460 10058=

12882 42960 01802 10165 20137 40066 56004 555 /7448=

12892 42970 11505 10185 20127 40061 57004 81040 555 /7420 55074=

12910 42686 21805 10189 20119 40030 58005 81240 333 81833

555 /7253 55111=

12915 NIL=

12920 42975 11801 10183 20112 40044 58001 80002 555 /7431=

12925 42980 11601 10168 20125 40044 58004 80002 555 /7410=

12935 42984 02305 10220 20126 40039 56001 555 /7435 55132=

12942 42980 01802 10177 20133 40056 56005 555 /7366=

12950 42965 01802 10164 20122 40063 54000 555 /7459=

12960 42965 01602 10160 20139 40061 56004 555 /7448=

12970 42960 12202 10180 20140 40057 56005 81040 555 /7442 10077=

12982 42968 01402 10157 20099 40074 53003 555 /7482=

12992 42975 01603 10171 20133 40069 57003 555 /7475=

––––––––––––––––––––––––––

SNBP HABP 010400 RTD

AAXX 01041

12830 42970 02506 10192 20097 40045 51011 555 /7303 55114 10054=

12840 42970 12005 10211 20112 40047 53003 81040

555 30208 40111 /7411 55103=

12930 42968 02003 10187 20115 40049 58007 555 /7412=

––––––––––––––––––––––––––

15.9.6. Feladat: Időjárási távirat 1992.09.01. 05 UTC-re

SNBP HABP 010500

AAXX 01051

12772 41940 11602 10167 20111 40050 56003 70500 81040=

12805 41665 83406 10158 20138 40048 51015 76188 8257/ 333 82633

555 55124=

12812 42680 70904 10185 20110 40042 51012 8397/ 333 81933 82833

555 55072=

12822 42565 73202 10191 20131 40049 52013 8257/ 333 82630=

12825 42560 73502 10192 20099 40048 52022 8457/ 333 84620

555 /7350 10055=

12838 NIL=

12843 42975 02301 10185 20118 40051 51004=

12851 42983 02406 10131 20108 42709 55000 555 55122=

12860 42960 01903 10179 20093 40052 56001 555 /7460 10057=

12882 42965 02003 10181 20146 40066 56001=

12892 42965 11404 10192 20132 40064 55001 81040=

12910 42586 51603 10183 20118 40030 57005 83260 333 83830 555 55071=

12915 42970 40902 10202 20129 40034 57004 84070=

12920 42975 21801 10178 20112 40043 58003 81042=

12925 42980 10000 10154 20125 40040 57012 81040=

12935 42986 12303 10214 20122 40043 53003 81040 555 55091=

12942 42980 01402 10172 20120 40052 58008=

12950 42965 01802 10168 20130 40056 58005=

12960 42975 01602 10172 20138 40059 58004=

12970 42965 02202 10192 20141 40057 56001 555 /7442 10072=

12982 42975 01402 10155 20097 40070 58001=

12992 42975 01703 10179 20144 40069 54000=

––––––––––––––––––––––––––

SNBP HABP 010500 RTD

AAXX 01051

12830 42975 33203 10180 20100 40050 53008 83070 555 /7306 10060=

12840 42975 11801 10210 20113 40047 51004 81040

555 30207 40113 55081=

12930 42970 12001 10183 20119 40048 56006 80002=

––––––––––––––––––––––––––

15.9.7. Feladat: Időjárási távirat 1992.09.01. 06 UTC-re

SNBP HABP 010600

AAXX 01061

12772 31940 11602 10188 20118 39781 40050 53002 70500 81040

333 20166 55106=

12805 11958 83410 10123 20115 39776 40060 53015 69902 76186 8807/

333 20123 55102 555 55172=

12812 32580 70506 10170 20108 39795 40053 52015 8427/

333 20170 55097 84830 555 55112=

12822 32568 73404 10184 20107 40056 52011 8257/

333 20184 55100 82630 555 55094=

12825 32560 73604 10194 20095 40054 52020 8457/

333 20188 55102 84620 555 /7414 55074 10053=

12838 NIL=

12843 32975 21602 10194 20123 40048 50000 81082 333 20180 55105=

12851 32982 02304 10135 20105 38920 42708 51001 333 20130 55110

555 55101=

12860 32965 02002 10202 20125 40054 53003 333 20166 55112

555 /7461 10061=

12882 32970 02003 10205 20148 40064 54000 333 20161 55107=

12892 32968 01303 10208 20139 40061 54000 333 20184 55101=

12910 32586 60903 10180 20118 39670 40031 55003 83260

333 20178 55101 83830=

12915 32970 70503 10198 20124 39835 40044 53005 8707/

333 20198 55111=

12920 32680 61101 10196 20123 40040 57004 81272

333 20176 55108 81840=

12925 32980 30000 10190 20131 40042 55005 83040 333 20150 55109=

12935 32986 22502 10216 20130 40043 51004 81042

333 20208 55113 92523=

12942 32980 11602 10210 20125 39815 40051 57009 81040

333 20166 55111=

12950 32965 02001 10192 20133 40053 58007 333 20140 55111=

12960 32981 11602 10202 20127 40053 58006 81040 333 20150 55097=

12970 32965 01801 10212 20152 40055 58002 333 20180

555 /7440 10068=

12982 32975 01401 10195 20113 40066 50000 333 20149 55101=

12992 32977 01804 10197 20150 40067 56001 333 20167 55109=

––––––––––––––––––––––––––

SNBP HABP 010600 RTD

AAXX 01061

12830 32975 73201 10190 20108 39719 40049 51004 8707/ 333 20176 55105

555 /7306 10059=

12840 32975 41802 10213 20117 40045 50000 84040 333 20206 55104

555 30209 40124=

12930 32975 21801 10209 20122 40044 56007 81042 333 20181 55107=

15.9.8. Feladat: Időjárási távirat 1992.09.01. 07 UTC-re

SNBP HABP 010700

AAXX 01071

12772 42970 01802 10220 20133 40045 50000=

12805 41540 83412 10098 20092 40071 53020 76166 8672/ 333 86726

555 55224=

12812 41556 80217 10110 20105 40064 53016 78122 8627/ 333 86830

555 55224=

12822 42575 73407 10148 20106 40060 52011 8557/ 333 85626 555 55153=

12825 42460 73508 10154 20077 40068 53028 8597/

333 82715 83820 82920 555 /7423 55124 10060=

12838 NIL=

12843 42975 11803 10216 20123 40048 54000 81082=

12851 42982 02704 10147 20105 42709 52005 555 55074=

12860 42965 02003 10227 20128 40053 50000 555 /7460 10054=

12882 42975 02004 10242 20159 40061 54000 555 55084=

12892 42975 01404 10237 20150 40063 52005=

12910 41565 80706 10153 20135 40039 53005 78188 8527/

333 85830 555 55103=

12915 42982 80505 10189 20107 40047 53008 8807/ 555 55093=

12920 42680 60202 10196 20129 40046 53003 82270 333 82840=

12925 42975 72003 10230 20126 40038 57004 8707/=

12935 42682 63202 10220 20139 40046 53007 85802 333 83834 82636=

12942 42980 21804 10236 20116 40050 55001 82040 555 55083=

12950 42970 02003 10232 20125 40052 56007=

12960 42981 01802 10235 20117 40051 56006=

12970 42965 01801 10235 20158 40052 58004 555 /7439 10062=

12982 42980 01602 10230 20120 40061 57008=

12992 42980 01704 10230 20149 40067 54000=

––––––––––––––––––––––––––

SNBP HABP 010700 RTD

AAXX 01071

12840 42975 11802 10222 20124 40044 57002 81080 555 30220 40122=

12830 42675 70204 10192 20103 40051 53006 8487/ 333 82833 84650

555 /7308 55074 10056=

12930 42980 22003 10242 20149 40043 55003 81042=

––––––––––––––––––––––––––

15.9.9. Feladat: Időjárási távirat 1992.09.01. 08 UTC-re

SNBP HABP 010800

AAXX 01081

12772 42680 11803 10241 20142 40043 50000 81100 333 81833=

12805 41660 83411 10088 20082 40086 53029 76166 8577/ 333 85733

555 55201=

12812 41557 80205 10100 20096 40086 52036 78082 8527/ 333 85830

555 55123=

12822 41468 83206 10119 20095 40084 53031 76122 8557/

333 81716 84626 555 55134=

12825 41258 83508 10112 20061 40096 53043 78122 8637/

333 83705 83920 555 /7442 55134 10071=

12838 NIL=

12843 42675 32303 10239 20124 40047 54000 81282 333 81840=

12851 42482 22504 10166 20116 42711 53007 81282 333 81816=

12860 42965 01803 10252 20129 40053 52002 555 /7462 10046=

12882 42980 02003 10265 20155 40060 54000=

12892 42980 01806 10252 20152 40061 50001 555 55083=

12910 41556 83608 10102 20095 40082 52041 78188 8627/

333 86823 555 55143=

12915 41440 83609 10117 20108 40075 53035 76382 8472/ 333 84713

555 55131=

12920 42581 63608 10184 20113 40053 53011 82270 333 82830 555 55124=

12925 42575 83202 10222 20137 40042 52005 8237/ 333 82930=

12935 42582 60207 10220 20137 40052 53009 86900 333 82926 84826

555 55134=

12942 42980 31803 10248 20120 40052 53007 82159 555 55092=

12950 42975 12004 10266 20127 40051 55000 81040=

12960 42981 11803 10264 20122 40051 56004 81040=

12970 42965 02001 10268 20169 40051 57005 555 /7438 10055=

12982 42980 01803 10264 20129 40057 57007=

12992 42980 01903 10257 20135 40066 54000=

––––––––––––––––––––––––––

SNBP HABP 010800 RTD

AAXX 01081

12830 42675 73409 10180 20086 40061 53009 8587/ 333 83833 85650

555 /7313 55124 10054=

12840 42975 42303 10232 20121 40048 53002 83240 333 83850

555 30222 40122=

12930 42680 72004 10258 20152 40042 51001 8257/ 333 82640 555 55074=

––––––––––––––––––––––––––

15.9.10. Feladat: Időjárási távirat 1992.09.01. 09 UTC-re

SNBP HABP 010900

AAXX 01091

12772 42681 12705 10260 20145 39777 40040 58004 81200 333 81833

555 55113=

12805 41556 83412 10080 20068 39816 40106 53040 76166 8677/

333 86726 555 55232=

12812 41557 80502 10099 20095 39844 40110 53049 78082 8627/

333 86830=

12822 41450 83405 10112 20101 40096 52036 76362 8477/ 333 84716

555 55142=

12825 41250 83404 10105 20062 40102 52052 78182 8632/

333 84705 82920 555 /7453 55084 10075=

12838 NIL=

12843 42681 32703 10241 20125 40047 51001 81282 333 81846=

12851 42482 32306 10181 20117 38926 42708 50005 82282 333 82826

555 55094=

12860 42965 02303 10276 20126 40050 50001 555 /7460 10040=

12882 42975 02503 10278 20158 40056 58003=

12892 42982 01704 10269 20141 40057 50000 555 55083=

12910 41556 83406 10091 20087 39732 40107 52063 78188 8627/

333 86823 555 55122=

12915 41458 83606 10098 20094 39891 40107 53056 76386 8272/

333 82710 555 55131=

12920 41570 83410 10114 20088 40071 53027 78182 8437/

333 81930 83830 555 55122=

12925 41525 83408 10114 20110 40093 53047 78111 883// 333 88920

555 55151=

12935 41582 73615 10176 20133 40061 53017 879//

333 81926 86826 92523 555 55194=

12942 42980 41805 10272 20139 39819 40047 50004 84050 555 55113=

12950 42675 22005 10282 20122 40047 58003 81240 333 81833 555 55104=

12960 42981 11804 10288 20137 40047 58002 81040=

12970 42965 12302 10280 20168 40051 56003 80001 555 /7438 10051=

12982 42981 11803 10283 20136 40059 55003 80002=

12992 42981 02004 10275 20135 40060 58004=

––––––––––––––––––––––––––

SNBP HABP 010900 RTD

AAXX 01091

12830 42675 73415 10128 20065 39744 40082 52025 8587/

333 83833 85650 555 /7325 55194 10065=

12840 42775 42703 10233 20108 40051 53006 83240 333 83850

555 30223 40113 55073=

12930 42680 72003 10250 20149 40046 53004 8427/ 333 84833=

––––––––––––––––––––––––––

15.9.11. Feladat: Időjárási távirat 1992.09.01. 10 UTC-re

SNBP HABP 011000

AAXX 01101

12772 42581 12307 10270 20148 40038 56003 81200 333 81830 555 55134=

12805 41560 83408 10076 20068 40122 52048 76166 8677/ 333 86726

555 55221=

12812 41557 80000 10102 20098 40135 53068 78082 8227/ 333 82830=

12822 41457 83405 10105 20096 40116 53053 76166 8477/ 333 84716

555 55152=

12825 41240 83407 10097 20046 40124 52052 76388 8672/ 333 86705

555 /7462 55104 10071=

12838 NIL=

12843 42670 53405 10212 20106 40059 53009 82382 333 81943 81843

555 55144=

12851 42483 42306 10194 20112 42709 52004 83252 333 83826 555 55101=

12860 42765 32004 10292 20126 40046 58003 82280 333 82850

555 /7458 55082 10036=

12882 42680 12303 10289 20161 40051 58008 81100 333 81840 555 55083=

12892 42682 11305 10282 20144 40056 57005 81100 333 81840 555 55094=

12910 41556 82903 10096 20092 40140 52090 76186 8372/ 333 83723

555 55111=

12915 41458 82904 10104 20100 40135 53080 76166 8472/ 333 84710

555 55071=

12920 41570 83407 10102 20083 40106 53055 78188 8437/

333 81930 83830 555 55142=

12925 41540 83406 10107 20102 40135 53089 76386 8472/ 333 84720

555 55131=

12935 41558 83412 10142 20122 40097 53035 78182 879//

333 83920 84826 555 55213=

12942 42680 61805 10260 20125 40052 52004 83570 333 83640 555 55113=

12950 42675 62307 10254 20091 40060 52009 86300 333 81933 85233

555 55184=

12960 42680 41805 10300 20135 40047 56002 82242 333 82833 555 55112=

12970 42660 42304 10293 20171 40046 58003 83102 333 83840

555 /7436 55071 10048=

12982 42981 11805 10302 20142 40055 57004 80002 555 55084=

12992 42782 12004 10288 20137 40057 57005 81140 333 81850=

––––––––––––––––––––––––––

SNBP HABP 011000 RTD

AAXX 01101

12830 41440 83414 10101 20074 40095 52032 78122 8787/

333 83815 84623 555 /7332 55192 10083=

12840 42675 62711 10185 20106 40067 53021 84382 333 82943 82843

555 30170 40100 55183=

12920 41570 83407 10102 20083 40106 53055 78188 8437/

333 81930 83830 555 55142=

15.9.12. Feladat: Időjárási távirat 1992.09.01. 11 UTC-re

SNBP HABP 011100

AAXX 01111

12772 42582 42308 10271 20146 40037 56004 83202 333 83830 555 /7332 55153=

12805 41570 83406 10082 20074 40139 52052 76166 8802/ 333 88526 555 /7388 55111=

12812 41570 80703 10108 20104 40131 50045 78082 8327/ 333 83830 555 /7400=

12822 41458 83205 10100 20087 40144 52058 76166 8377/ 333 83716 555 /7503 55142=

12825 41240 83307 10093 20044 40149 52051 76366 8372/ 333 83705 555 /7481 55104 10071=

12838 NIL=

12843 41670 53410 10165 20096 40074 53023 73222 83382 333 81933 82833 555 /7433 55184=

12851 42481 62306 10183 20106 42711 53001 85360 333 83916 82816 555 /6697 55111=

12860 42765 61808 10295 20147 40039 57012 86200 333 86850 555 /7453 55144 10033=

12882 42680 12305 10297 20156 40046 57012 81100 333 81840 555 /7439 55124=

12892 42682 11805 10294 20147 40054 57005 81100 333 81840 555 /7419 55092=

12910 41584 73202 10098 20092 40133 50049 72166 8177/ 333 81730 555 /7320=

12915 41482 73405 10104 20099 40130 50052 76166 8177/ 333 81713

555 /7435 55092=

12920 41580 83204 10105 20086 40136 52078 78088 8427/ 333 84830 555 /7497 55084=

12925 41562 83405 10110 20105 40130 50080 76166 8272/ 333 82720 555 /7470 55124=

12935 41565 83216 10130 20111 40118 51060 78188 879// 333 83920 84826 555 /7490 55253=

12942 41456 82910 10120 20108 40119 53055 76382 8572/ 333 85710 555 /7409 55194=

12950 41675 73608 10148 20100 40091 53033 78022 8537/ 333 81933 84833 555 /7480 55184=

12960 41520 72513 10292 20132 40059 53010 78011 873// 333 82926 85926 555 /7450 55214=

12970 41640 62808 10297 20171 40046 56003 73111 86200 333 86840 555 /7436 55132 10047=

12982 42780 31805 10313 20151 40050 58007 82202 333 82857 555 /7469 55113=

12992 42784 12006 10297 20113 40052 57011 81140 333 81850 555 /7467 55094=

AAXX 01111

12830 41440 83216 10086 20060 40124 52051 78088 8627/ 333 86815 555 /7351 55234 10084=

12840 41375 72712 10160 20095 40085 52033 78022 85385 333 82709 83925 555 30148 40102 /7437 55213=

12930 41468 83410 10100 20089 40135 52082 76188 8472/ 333 84710 555 /7471 55163=

15.9.13. Feladat: Időjárási távirat 1992.09.01. 12 UTC-re

SNBP HABP 011200

AAXX 01121

12772 32582 62306 10268 20140 39775 40037 56002 85302 333 81926 84830 555 55111=

12805 11582 83405 10104 20083 39850 40137 51033 60171 76066 8477/ 333 84720 555 55123=

12812 11570 80901 10110 20105 39883 40149 52039 60191 72582 8427/ 333 84820=

12822 11470 83404 10104 20083 40144 51046 60131 76162 8277/ 333 82716 555 55121=

12825 11360 73604 10102 20059 40139 50026 60171 76086 8177/ 333 81708 555 /7472 55074 10074=

12838 NIL=

12843 11465 83210 10133 20083 40097 53043 69901 78083 8697/ 333 81710 82926 83826 555 55222=

12851 32481 72304 10176 20101 38928 42712 51003 8528/ 333 82813 83830 555 55081=

12860 31758 62909 10248 20122 40052 53001 70922 86200 333 86833 555 /7461 55151 10045=

12882 32780 12004 10308 20156 40047 56011 81100 333 81850 555 55123=

12892 32682 31306 10302 20134 40049 57008 82102 333 82840 555 55112=

12910 11688 73202 10113 20087 39772 40146 52040 60271 70386 8227/ 333 82833=

12915 11486 72904 10124 20095 39930 40146 52039 60201 72186 8427/ 333 84816=

12920 11581 63204 10118 20085 40136 51064 60151 72582 86800

333 83827 83633 555 55074=

12925 11584 63205 10130 20096 40151 52057 60221 72186 84870 333 82820 82630 555 55091=

12935 11580 73416 10136 20104 40133 51069 60131 78081 8537/ 333 82320 83826 92521 555 55241=

12942 11480 83412 10112 20090 39882 40124 51049 60041 76082 8272/ 333 82713 555 55194=

12950 11560 83408 10104 20100 40132 53077 60021 78182 8627/ 333 86830 555 55193=

12960 11556 83209 10122 20115 40124 53068 60011 78088 8527/ 333 85820 555 55174=

12970 31630 63011 10197 20115 40074 53021 73232 85302 333 85933 555 /7454 55224 10059=

12982 32780 52305 10307 20144 40051 55007 85382 333 81950 84857 555 55104=

12992 32783 22207 10311 20123 40053 55005 82240 333 82850 555 55093=

SNBP HABP 011200 RTD

AAXX 01121

12830 11465 73213 10092 20056 39790 40135 52046 60111 78081 8677/ 333 82710 84815 555 /7359 55174 10078=

12840 11383 82710 10128 20090 40101 52043 69961 78382 8637/ 333 83709 85932 555 30122 40089 55242=

12930 11480 73405 10111 20089 40139 51083 60091 76086 8177/ 333 81714 555 55123=

15.9.14. Feladat: Időjárási távirat 1992.09.01. 13 UTC-re

SNBP HABP 011300

AAXX 01131

12772 42582 62705 10270 20140 40036 58002 84362 333 82926 82830

555 55093=

12805 41682 73404 10127 20093 40143 52025 72166 8227/ 333 82833

555 55081=

12812 42575 71401 10117 20086 40153 53019 8327/ 333 83821=

12822 41477 83204 10120 20097 40150 53034 76066 82777 333 82716

555 55094=

12825 41360 73605 10124 20056 40159 52032 76066 8177/ 333 81708

555 /7486 55074 10063=

12838 NIL=

12843 41460 83209 10112 20086 40115 52049 78088 8592/

333 81710 81926 83826 555 55211=

12851 42360 82510 10102 20080 42725 52007 8727/ 333 87807

555 55124=

12860 41530 62911 10172 20101 40086 53035 73433 82570 333 82627

555 /7485 55194 10063=

12882 42770 32307 10302 20150 40039 57011 82202 333 82850 555 55144=

12892 42682 51307 10305 20127 40042 57011 83105 333 83840 555 55101=

12910 42988 53202 10144 20078 40149 53013 85070=

12915 42589 73203 10141 20094 40147 53015 8524/ 333 85821=

12920 42582 53204 10142 20092 40149 52044 83202 333 83827 555 55074=

12925 42584 33605 10148 20093 40151 53017 83240 333 83820 555 55082=

12935 41582 73411 10150 20101 40136 51039 72582 8487/

333 82820 82626 555 55232=

12942 41480 73201 10116 20078 40135 52070 72162 8272/ 333 82713

555 55231=

12950 41580 73607 10108 20091 40137 51070 78088 8527/ 333 85830

555 55151=

12960 41481 73205 10106 20101 40131 52074 76088 8377/ 333 83713

555 55171=

12970 41430 83015 10130 20094 40109 53029 78033 8687/

333 82815 86620 555 /7478 55232 10079=

12982 41636 73214 10161 20075 40103 53041 73322 8488/

333 81825 83630 555 55223=

12992 42782 42107 10302 20125 40050 57008 83201 333 83850 555 55103=

AAXX 01131

12840 41480 82708 10114 20082 40118 51045 76086 8352/

333 82710 82637 88557 555 30108 40082 55214=

12830 41675 73413 10114 20078 40135 52039 72582 8687/ 333 83840 83650

555 /7361 55192 20064=

12930 41484 53405 10132 20090 40149 52048 72162 81770 333 81714

555 55091=

15.9.15. Feladat: Időjárási távirat 1992.09.01. 14 UTC-re

SNBP HABP 011400

AAXX 01141

12772 42570 73412 10202 20105 40047 53004 86372 333 84923 82830

555 55203=

12805 42582 73404 10153 20092 40147 53013 8527/ 333 85826 555 55102=

12812 42580 72001 10142 20075 40154 51025 83242 333 83820=

12822 41582 73204 10136 20102 40147 50005 72166 8277/ 333 82720

555 55081=

12825 41460 73405 10133 20062 40155 53017 72166 8217/ 333 82810

555 /7486 55074 10062=

12838 NIL=

12843 41484 73408 10124 20081 40119 51041 72586 8117/ 333 81816

555 55162=

12851 41309 82909 10079 20075 42730 53009 8787/ 333 83807 84626

555 55141=

12860 42565 72909 10138 20087 40104 52058 8437/ 333 81927 83625

555 /7496 55221 10071=

12882 41630 73212 10241 20130 40055 53005 872// 333 87840 555 55213=

12892 42682 51407 10302 20125 40043 56009 83205 333 83840 555 55124=

12910 42988 23202 10160 20060 40146 51020 81042=

12915 42589 23402 10154 20081 40150 52024 81240 333 81826=

12920 42584 53203 10160 20086 40144 50011 83242 333 83827 555 55092=

12925 42584 33403 10161 20085 40155 51027 82240 333 82820 555 55072=

12935 42582 33412 10162 20097 40139 51023 83200 333 83820 555 55224=

12942 42582 72905 10126 20088 40144 53024 8217/ 333 82820 555 55112=

12950 41580 73406 10123 20094 40144 51052 72582 8227/ 333 82830

555 55121=

12960 41483 73205 10115 20097 40134 51066 76066 8277/ 333 82713

555 55092=

12970 41458 73012 10117 20108 40118 52063 72582 8587/

333 81815 85620 555 /7483 55144 10094=

12982 41556 83410 10133 20053 40115 53059 76132 8257/ 333 82625

555 55171=

12992 41950 52913 10184 20093 40091 53033 73331 83082 555 55212=

––––––––––––––––––––––––––

15.9.16. Feladat: Időjárási távirat 1992.09.01. 15 UTC-re

SNBP HABP 011500

AAXX 01151

12772 41565 83603 10151 20106 39792 40065 53017 72522 8637/ 333 86923 555 55242=

12805 41582 33305 10156 20079 39866 40149 51016 70162 83240 333 83826 555 55131=

12812 42580 30000 10153 20076 39893 40157 51011 82242 333 82820=

12822 41582 43405 10154 20099 40147 52006 70162 82240 333 82823 555 55114=

12825 41560 43406 10160 20071 40152 50003 70162 83140 333 83823 555 /7485 55124 10056=

12830 41675 33209 10151 20048 39803 40140 52013 70182 82260 333 82840 555 /7370 55164 10050=

12843 41486 33209 10150 20081 40119 51023 70186 81140 333 81816 555 55193=

12851 41382 73407 10076 20065 38943 42736 52015 72884 8147/ 333 81607 444 26104 555 55124=

12860 41565 73008 10134 20091 40111 51054 78083 8437/ 333 82927 82627 555 /7501 55151 10075=

12882 42970 73214 10179 20099 40083 53031 8707/ 555 55222=

12892 41720 72015 10250 20120 40055 53004 73232 8337/ 333 83950 555 55194=

12910 42988 23403 10170 20054 39786 40151 52013 81042=

12915 42589 13204 10166 20083 39940 40153 52011 81200 333 81826=12805 NIL=

12920 42584 32703 10165 20084 40153 52019 81260 333 81827 555 55081=

12925 42584 33403 10164 20070 40160 53011 82240 333 82820=

12935 41582 23412 10170 20098 40137 51005 70181 81202

333 81820 92520 555 55231=

12942 41582 63204 10150 20093 39910 40151 52028 70162 8210

333 82820 555 55103=

12950 41580 63404 10146 20086 40146 52015 70182 82270 333 82830

555 55102=

12960 41583 73205 10128 20101 40144 53070 72186 8227/ 333 82820

555 55082=

12970 42560 73109 10126 20107 40123 52047 8557/ 333 85620

555 /7489 55131 10088=

12982 41562 83408 10114 20061 40127 53068 76163 8357/ 333 83620

555 55141=

12992 41675 73108 10164 20085 40099 52040 70931 83582 333 83640

555 55181=

––––––––––––––––––––––––––

AAXX 01151

12840 41589 62908 10148 20084 40131 52032 70386 84881

333 83825 82656 555 30146 40084 55181=

12830 41675 33209 10151 20048 39803 40140 52013 70182 82260

333 82840 555 /7370 55164 10050=

12930 41584 23408 10171 20076 40154 52019 70161 81140 333 81826

555 55131=

––––––––––––––––––––––––––

15.9.17. Feladat: Időjárási távirat 1992.09.01. 16 UTC-re

SNBP HABP 011600

AAXX 01161

12772 42584 73212 10146 20084 40078 51031 8557/ 333 85623 555 55194=

12805 42582 23404 10161 20068 40151 51011 82200 333 82826 555 55121=

12812 42580 22701 10168 20066 40162 52012 81240 333 81820=

12822 42582 33404 10163 20098 40151 53003 82240 333 82823 555 55102=

12825 42560 23405 10167 20060 40158 53006 82100 333 82823

555 /7490 55084 10049=

12838 NIL=

12843 42486 23208 10151 20077 40123 52011 81240 333 81816 555 55201=

12851 42282 73209 10067 20057 42738 52011 872// 333 87804 555 55193=

12860 41565 73007 10139 20078 40113 51037 72582 8537/

333 82927 83627 555 /7511 55141 10067=

12882 42975 72910 10171 20100 40088 52041 8707/ 555 55154=

12892 41970 82304 10186 20102 40075 53024 70932 8807/ 555 55212=

12910 42588 33601 10170 20054 40151 51007 81230 333 81823=

12915 42689 23602 10162 20076 40158 52012 81440 333 81633 555 55071=

12920 42584 22902 10171 20087 40159 53012 81240 333 81827=

12925 42584 33603 10170 20066 40164 52015 82540 333 82626=

12935 42582 13211 10172 20099 40143 53008 81200 333 81820 555 55213=

12942 42582 43205 10158 20098 40155 52021 82140 333 82820 555 55112=

12950 42580 33404 10165 20073 40154 52019 81140 333 81830 555 55122=

12960 42583 62902 10144 20107 40154 53025 82270 333 82820=

12970 41460 63106 10140 20103 40126 52017 76122 81170 333 81814

555 /7491 55143 10078=

12982 41570 73206 10118 20066 40141 52036 76166 8257/ 333 82630

555 55103=

12992 42686 83109 10153 20086 40117 52060 8557/ 333 81720 85633

555 55131=

––––––––––––––––––––––––––

SNBP HABP 011600 RTD

AAXX 01161

12840 42589 42907 10153 20073 40131 51016 84341 333 81925 83827

555 30150 40070 55193=

12830 42675 33212 10148 20056 40141 51011 82260 333 82840

555 /7370 55184 10054=

12930 42584 13408 10162 20074 40163 52016 81100 333 81826 555 55151=

––––––––––––––––––––––––––

15.9.18. Feladat: Időjárási távirat 1992.09.01. 17 UTC-re

SNBP HABP 011700

AAXX 01171

12772 42582 63213 10142 20066 40089 53036 83570 333 83623 555 55224=

12805 42682 13404 10157 20056 40162 53016 81440 333 81633 555 55102=

12812 42580 20000 10164 20063 40171 53017 81240 333 81820=

12822 42584 23404 10159 20087 40157 52011 81240 333 81826 555 55113=

12825 42560 13204 10160 20048 40166 53013 81100 333 81823

555 /7496 55074 10047=

12838 NIL=

12843 42486 13407 10151 20075 40131 53013 81200 333 81816 555 55172=

12851 42383 43209 10067 20051 42745 52015 83280 333 83807 555 55191=

12860 41565 63006 10151 20082 40131 52018 72582 84370

333 82927 82627 555 /7517 55111 10063=

12882 42680 72909 10148 20104 40113 52051 8397/ 333 83940 555 55201=

12892 41970 72308 10170 20108 40093 52041 76262 8707/ 555 55134=

12910 42588 30000 10162 20050 40168 52021 81230 444 81827=

12915 42989 40702 10160 20078 40167 53017 84030=

12920 42684 32701 10157 20087 40166 51021 81140 333 81840=

12925 42984 30000 10162 20071 40172 52017 83040=

12935 42582 13210 10175 20090 40158 53020 81200 333 81820 555 55193=

12942 42982 33203 10152 20070 40164 52021 83040 555 55113=

12950 42580 23403 10158 20071 40164 53021 81140 333 81830 555 55111=

12960 42583 32903 10153 20088 40163 52030 81240 333 81826 555 55073=

12970 41460 63006 10157 20103 40143 52018 72162 81170 333 81814

555 /7504 55122 10047=

12982 41980 73204 10123 20068 40154 52036 76066 86072 555 55071=

12992 41683 72907 10129 20102 40132 53040 76162 8357/ 333 83633

555 55121=

––––––––––––––––––––––––––

SNBP HABP 011700 RTD

AAXX 01171

12830 42675 13213 10146 20048 40150 52016 81200 333 81840

555 /7377 55184 10052=

12840 42589 23007 10151 20073 40137 52018 82241 333 82828

555 30152 40068 55171=

12930 42682 12903 10154 20077 40173 53025 81400 333 81633 555 55091=

––––––––––––––––––––––––––

15.9.19. Feladat: Időjárási távirat 1992.09.01. 18 UTC-re

SNBP HABP 011800

AAXX 01181

12772 11580 53211 10141 20061 39831 40106 53039 69922 70182 83470 333 10283 83623 555 55212=

12805 11682 23203 10142 20050 39890 40173 53024 60182 70361 82500 333 10165 82633 555 55082=

12812 12580 20000 10143 20097 39919 40184 53025 60192 81440 333 10170 81620=

12822 11584 13202 10142 20086 40168 53020 60132 70161 81200 333 10184 81826 555 55082=

12825 11960 13203 10148 20064 40173 51020 60172 70161 81040 333 10194 555 /7500 10057=

12838 NIL=

12843 11486 13406 10148 20076 40147 53028 60012 70186 81101 333 10243 81816 555 55132=

12851 11389 53209 10067 20053 38963 42755 53020 69942 70384 83280 333 10204 83807 444 16090 555 55151=

12860 11565 53007 10150 20072 40145 52035 69902 71083 82570 333 10310 82627 555 /7527 55121 10060=

12882 11675 72704 10133 20105 40127 52040 69912 78081 8397/ 333 10319 83940 555 55142=

12892 11575 72309 10140 20109 40110 52049 69902 76263 8277/ 333 10308 82726 555 55133=

12910 12588 23201 10138 20037 39811 40181 53025 60272 81440 333 10180 81630=

12915 12989 20901 10143 20091 39962 40175 52021 60202 82040 333 10198=

12920 12682 30000 10138 20081 40177 53023 60152 81430 333 10198 81633=

12925 12984 40201 10154 20099 40184 53024 60222 84070 333 10230=

12935 11582 13208 10168 20083 40175 53037 60132 70181 81400 333 10224 81626 92518 555 55151=

12942 11980 22903 10136 20074 39944 40186 52035 60052 70161 82040 333 10280=

12950 11680 13202 10141 20076 40173 52028 60042 70181 81100 333 10286 81833 555 55081=

12960 11982 13202 10142 20084 40175 52032 60042 70186 81040 333 10305=

12970 11460 23005 10142 20092 40159 52036 69902 70186 81170 333 10297 81814 555 /7516 55092 10072=

12982 11982 63203 10126 20071 40167 53041 69942 72163 86072 333 10318=

12992 11582 72805 10131 20101 40153 53051 69962 78063 8527/ 333 10317 82830 83630 555 55091=

SNBP HABP 011800 RTD

AAXX 01181

12830 11975 13212 10138 20042 39823 40162 53020 60112 70181 81060 333 10193 555 /7385 55161 10052=

12840 11589 13106 10153 20080 40148 53016 60022 70186 81100 333 10235 81828 555 30146 40082 55181=

12930 11980 22703 10136 20083 40186 52030 60092 70361 82040 333 10263=

15.9.20. Feladat: Időjárási távirat 1992.09.01. 19 UTC-re

SNBP HABP 011900

AAXX 01191

12772 42580 23208 10137 20056 40127 51047 82400 333 82623 555 55152=

12805 42684 23302 10134 20045 40187 52032 82500 333 82633=

12812 42980 22901 10130 20065 40198 53033 82040=

12822 42582 22902 10131 20083 40182 53029 81440 333 81630=

12825 42960 10000 10138 20047 40186 52026 81040 555 /7510 10054=

12838 NIL=

12843 42484 13403 10143 20081 40165 53041 81100 333 81816 555 55111=

12851 42389 33209 10064 20038 42757 53031 82280 333 82807 555 55173=

12860 42965 23006 10144 20069 40164 53041 82070

555 /7542 55113 10061=

12882 41680 72908 10141 20094 40141 52051 72582 8297/ 333 82940

555 55174=

12892 41984 52304 10136 20097 40137 52059 72162 84072 555 55101=

12910 42984 03201 10100 20045 40199 52036=

12915 NIL=

12920 42982 12701 10122 20091 40187 53025 81040=

12925 42984 10000 10126 20105 40200 53033 81040=

12935 42982 02707 10169 20078 40187 52044 555 55122=

12942 42980 02902 10123 20076 40200 52041=

12950 42980 02502 10120 20091 40193 52036=

12960 42980 12701 10124 20089 40190 52033 81040=

12970 42960 03005 10140 20091 40175 52049 555 /7528 55073 10073=

12982 42982 52903 10133 20062 40186 53047 85072=~

12992 41684 72604 10135 20103 40167 52051 72582 8357/ 333 83640=

––––––––––––––––––––––––––

SNBP HABP 011900 RTD

AAXX 01191

12830 42975 13208 10131 20038 40180 53035 81040

555 /7396 55131 10053=

12840 42589 12908 10146 20082 40162 53030 81101 333 81827

555 30144 40086 55183=

12930 42980 52501 10130 20084 40199 52034 85040=

15.9.21. Feladat: Időjárási távirat 1992.09.01. 20 UTC-re

SNBP HABP 012000

AAXX 01201

12772 42580 03209 10135 20053 40145 53055 555 55161=

12805 42684 13301 10125 20050 40195 51029 81500 333 81633=

12812 42975 13201 10119 20059 40206 52031 81040=

12822 42982 13201 10123 20080 40193 52034 81040=

12825 42960 00000 10125 20043 40197 52029 555 /7517 10057=

12838 NIL=

12843 42982 02901 10142 20088 40179 52047=

12851 42389 13210 10066 20022 42776 52033 81280 333 81807 555 55243=

12860 42965 03005 10140 20077 40170 52048 555 /7553 55084 10066=

12882 42980 22905 10139 20086 40154 52041 81082 555 55124=

12892 42986 73601 10138 20106 40157 52060 8707/=

12910 42981 03201 10086 20056 40211 52032=

12915 NIL=

12920 42982 10000 10114 20086 40202 53032 81040=

12925 42984 11401 10114 20100 40211 52036 81040=

12935 42982 02707 10166 20077 40200 51041 555 55122=

12942 42980 03201 10118 20075 40213 52045=

12950 42980 02701 10108 20086 40200 52035=

12960 42970 02001 10101 20095 40206 52039=

12970 42960 02803 10135 20094 40191 52048 555 /7540 10076=

12982 42982 22902 10111 20053 40199 52045 81042=

12992 NIL=

––––––––––––––––––––––––––

SNBP HABP 012000 RTD

AAXX 01201

12830 42975 13208 10133 20033 40192 52038 81040

555 /7405 55134 10051=

12840 42988 22706 10145 20087 40176 53038 80001

555 30143 40091 55161=

12930 42970 02501 10121 20088 40208 52033=

––––––––––––––––––––––––––

15.9.22. Feladat: Időjárási távirat 1992.09.01. 21 UTC-re

SNBP HABP 012100

AAXX 01211

12772 42980 03409 10135 20048 39882 40157 51051 555 55154=

12805 42984 02701 10123 20052 39918 40206 52028=

12812 42975 13201 10101 20074 39947 40216 52028 81040=

12822 42982 02702 10121 20076 40202 52033=

12825 42960 00000 10112 20048 40208 51032 555 /7524 10065=

12838 NIL=

12843 42982 02501 10126 20073 40194 51044=

12860 42965 02705 10134 20070 40190 51044 555 /7561 55092 10065=

12892 42986 73001 10142 20103 40171 52060 8707/=

12851 42989 13410 10067 20021 38999 42788 53036 81040 555 55231=

12882 41980 42903 10139 20086 40173 52047 70381 83082 555 55091=

12892 42986 73001 10142 20103 40171 52060 8707/=

12910 42981 00000 10076 20049 39839 40219 51028=

12915 NIL=

12920 42982 00000 10104 20081 40208 52029=

12925 42984 01401 10097 20091 40220 51032=

12935 42982 02706 10163 20082 40208 51032 555 55112=

12942 42980 02301 10110 20073 39976 40223 52032=

12950 42975 02701 10092 20086 40216 52039=

12960 42965 01101 10090 20084 40216 52037=

12970 42960 02503 10132 20098 40200 52041 555 /7547 10080=

12982 42982 12901 10104 20047 40211 52041 80002=

12992 41984 12605 10130 20080 40191 51039 70181 81040 555 55071=

––––––––––––––––––––––––––

SNBP HABP 012100 RTD

AAXX 01211

12830 42975 03207 10131 20033 39863 40205 52040

555 /7415 55121 10051=

12840 42988 12805 10147 20070 40191 53043 80001

555 30146 40069 55121=

12930 42970 02301 10111 20091 40217 52029=

––––––––––––––––––––––––––

15.9.23. Feladat: Időjárási távirat 1992.09.01. 22 UTC-re

SNLP HALP 012200

AAXX 01221

12860 42965 02503 10123 20076 40202 51036 555 /7569 10073=

12970 42960 02702 10126 20103 40206 52031 555 /7551 10086=

12825 42960 00000 10103 20039 40219 52029 555 /7532 10065=

12932 42960 22501 10110 20090 40226 52024 82030 555 /7530 10087=

12830 42975 03206 10121 20030 40212 52031 555 /7419 55091 10054=

––––––––––––––––––––––––––

15.9.24. Feladat: Időjárási távirat 1992.09.01. 23 UTC-re

SNLP HALP 012300

AAXX 01231

12825 42960 00000 10098 20038 40223 52023 555 /7534 10066=

12860 42965 02703 10118 20076 40206 52024 55 /7572 10077=

12830 42975 02704 10099 20032 40225 52028 555 /7426 55071 10063=

12932 42960 62302 10104 20083 40235 52023 81030 555 /7537 10088=

12970 NIL=

––––––––––––––––––––––––––